sensor_id;sensor_type;location;lat;lon;timestamp;P1;durP1;ratioP1;P2;durP2;ratioP2
24090;SDS011;12272;52.426;17.100;2023-09-18T00:00:34;9.93;;;6.82;;
24090;SDS011;12272;52.426;17.100;2023-09-18T00:05:37;8.98;;;7.68;;
24090;SDS011;12272;52.426;17.100;2023-09-18T00:10:40;10.02;;;8.23;;
24090;SDS011;12272;52.426;17.100;2023-09-18T00:15:43;8.60;;;6.57;;
24090;SDS011;12272;52.426;17.100;2023-09-18T00:20:48;9.48;;;8.43;;
24090;SDS011;12272;52.426;17.100;2023-09-18T00:25:54;7.63;;;6.93;;
24090;SDS011;12272;52.426;17.100;2023-09-18T00:30:56;9.20;;;8.32;;
24090;SDS011;12272;52.426;17.100;2023-09-18T00:35:59;12.60;;;7.93;;
24090;SDS011;12272;52.426;17.100;2023-09-18T00:41:02;10.77;;;8.00;;
24090;SDS011;12272;52.426;17.100;2023-09-18T00:46:05;9.35;;;8.43;;
24090;SDS011;12272;52.426;17.100;2023-09-18T00:51:08;9.38;;;7.63;;
24090;SDS011;12272;52.426;17.100;2023-09-18T00:56:10;12.35;;;8.93;;
24090;SDS011;12272;52.426;17.100;2023-09-18T01:01:15;8.50;;;7.28;;
24090;SDS011;12272;52.426;17.100;2023-09-18T01:06:24;9.55;;;7.78;;
24090;SDS011;12272;52.426;17.100;2023-09-18T01:11:38;6.95;;;6.30;;
24090;SDS011;12272;52.426;17.100;2023-09-18T01:17:04;9.07;;;8.18;;
24090;SDS011;12272;52.426;17.100;2023-09-18T01:22:11;10.82;;;8.00;;
24090;SDS011;12272;52.426;17.100;2023-09-18T01:27:18;14.10;;;8.38;;
24090;SDS011;12272;52.426;17.100;2023-09-18T01:32:23;8.40;;;7.65;;
24090;SDS011;12272;52.426;17.100;2023-09-18T01:37:30;13.20;;;9.13;;
24090;SDS011;12272;52.426;17.100;2023-09-18T01:42:34;9.13;;;8.23;;
24090;SDS011;12272;52.426;17.100;2023-09-18T01:47:37;12.73;;;8.55;;
24090;SDS011;12272;52.426;17.100;2023-09-18T01:52:40;8.63;;;7.72;;
24090;SDS011;12272;52.426;17.100;2023-09-18T01:57:43;9.35;;;8.20;;
24090;SDS011;12272;52.426;17.100;2023-09-18T02:02:45;9.70;;;7.18;;
24090;SDS011;12272;52.426;17.100;2023-09-18T02:08:08;8.68;;;7.78;;
24090;SDS011;12272;52.426;17.100;2023-09-18T02:13:11;5.70;;;5.18;;
24090;SDS011;12272;52.426;17.100;2023-09-18T02:18:13;10.65;;;8.55;;
24090;SDS011;12272;52.426;17.100;2023-09-18T02:23:17;8.95;;;7.82;;
24090;SDS011;12272;52.426;17.100;2023-09-18T02:28:21;10.18;;;8.30;;
24090;SDS011;12272;52.426;17.100;2023-09-18T02:33:24;11.77;;;8.25;;
24090;SDS011;12272;52.426;17.100;2023-09-18T02:38:27;12.77;;;8.65;;
24090;SDS011;12272;52.426;17.100;2023-09-18T02:43:32;15.25;;;8.10;;
24090;SDS011;12272;52.426;17.100;2023-09-18T02:48:35;10.80;;;9.25;;
24090;SDS011;12272;52.426;17.100;2023-09-18T02:53:38;9.82;;;8.38;;
24090;SDS011;12272;52.426;17.100;2023-09-18T02:58:41;10.15;;;8.95;;
24090;SDS011;12272;52.426;17.100;2023-09-18T03:03:43;7.25;;;6.57;;
24090;SDS011;12272;52.426;17.100;2023-09-18T03:08:46;7.22;;;6.55;;
24090;SDS011;12272;52.426;17.100;2023-09-18T03:13:50;12.20;;;8.90;;
24090;SDS011;12272;52.426;17.100;2023-09-18T03:18:54;12.13;;;9.15;;
24090;SDS011;12272;52.426;17.100;2023-09-18T03:23:57;10.25;;;8.85;;
24090;SDS011;12272;52.426;17.100;2023-09-18T03:28:59;10.75;;;9.65;;
24090;SDS011;12272;52.426;17.100;2023-09-18T03:34:02;13.07;;;9.43;;
24090;SDS011;12272;52.426;17.100;2023-09-18T03:39:05;8.15;;;6.95;;
24090;SDS011;12272;52.426;17.100;2023-09-18T03:44:08;10.88;;;9.77;;
24090;SDS011;12272;52.426;17.100;2023-09-18T03:49:12;14.88;;;11.45;;
24090;SDS011;12272;52.426;17.100;2023-09-18T03:54:15;13.57;;;12.05;;
24090;SDS011;12272;52.426;17.100;2023-09-18T03:59:18;11.98;;;10.77;;
24090;SDS011;12272;52.426;17.100;2023-09-18T04:04:20;17.95;;;12.07;;
24090;SDS011;12272;52.426;17.100;2023-09-18T04:09:23;15.57;;;11.00;;
24090;SDS011;12272;52.426;17.100;2023-09-18T04:14:26;17.45;;;12.55;;
24090;SDS011;12272;52.426;17.100;2023-09-18T04:19:29;14.55;;;11.05;;
24090;SDS011;12272;52.426;17.100;2023-09-18T04:24:32;16.67;;;12.18;;
24090;SDS011;12272;52.426;17.100;2023-09-18T04:29:35;15.75;;;11.93;;
24090;SDS011;12272;52.426;17.100;2023-09-18T04:34:38;16.35;;;12.48;;
24090;SDS011;12272;52.426;17.100;2023-09-18T04:39:41;17.48;;;11.57;;
24090;SDS011;12272;52.426;17.100;2023-09-18T04:44:43;12.32;;;10.65;;
24090;SDS011;12272;52.426;17.100;2023-09-18T04:49:46;15.98;;;11.77;;
24090;SDS011;12272;52.426;17.100;2023-09-18T04:54:51;10.95;;;8.68;;
24090;SDS011;12272;52.426;17.100;2023-09-18T04:59:56;13.65;;;9.40;;
24090;SDS011;12272;52.426;17.100;2023-09-18T05:05:15;22.58;;;14.43;;
24090;SDS011;12272;52.426;17.100;2023-09-18T05:10:17;20.15;;;15.32;;
24090;SDS011;12272;52.426;17.100;2023-09-18T05:15:20;19.58;;;15.40;;
24090;SDS011;12272;52.426;17.100;2023-09-18T05:20:23;14.18;;;10.00;;
24090;SDS011;12272;52.426;17.100;2023-09-18T05:25:27;17.65;;;11.88;;
24090;SDS011;12272;52.426;17.100;2023-09-18T05:30:32;19.35;;;13.82;;
24090;SDS011;12272;52.426;17.100;2023-09-18T05:35:41;10.60;;;9.60;;
24090;SDS011;12272;52.426;17.100;2023-09-18T05:40:46;15.73;;;13.48;;
24090;SDS011;12272;52.426;17.100;2023-09-18T05:45:49;16.00;;;11.38;;
24090;SDS011;12272;52.426;17.100;2023-09-18T05:50:51;19.88;;;15.60;;
24090;SDS011;12272;52.426;17.100;2023-09-18T05:55:56;14.32;;;12.82;;
24090;SDS011;12272;52.426;17.100;2023-09-18T06:01:06;12.90;;;11.60;;
24090;SDS011;12272;52.426;17.100;2023-09-18T06:06:09;14.35;;;12.55;;
24090;SDS011;12272;52.426;17.100;2023-09-18T06:11:12;27.67;;;17.80;;
24090;SDS011;12272;52.426;17.100;2023-09-18T06:16:15;21.83;;;14.05;;
24090;SDS011;12272;52.426;17.100;2023-09-18T06:21:17;11.95;;;10.68;;
24090;SDS011;12272;52.426;17.100;2023-09-18T06:26:20;14.65;;;13.13;;
24090;SDS011;12272;52.426;17.100;2023-09-18T06:31:23;12.45;;;11.23;;
24090;SDS011;12272;52.426;17.100;2023-09-18T06:36:26;11.75;;;10.05;;
24090;SDS011;12272;52.426;17.100;2023-09-18T06:41:28;18.13;;;9.75;;
24090;SDS011;12272;52.426;17.100;2023-09-18T06:46:31;10.52;;;8.77;;
24090;SDS011;12272;52.426;17.100;2023-09-18T06:51:34;10.43;;;7.45;;
24090;SDS011;12272;52.426;17.100;2023-09-18T06:56:44;8.93;;;8.02;;
24090;SDS011;12272;52.426;17.100;2023-09-18T07:01:47;13.40;;;10.90;;
24090;SDS011;12272;52.426;17.100;2023-09-18T07:06:49;10.85;;;9.32;;
24090;SDS011;12272;52.426;17.100;2023-09-18T07:11:52;8.60;;;7.70;;
24090;SDS011;12272;52.426;17.100;2023-09-18T07:16:54;9.73;;;8.02;;
24090;SDS011;12272;52.426;17.100;2023-09-18T07:21:57;9.93;;;8.85;;
24090;SDS011;12272;52.426;17.100;2023-09-18T07:26:59;6.20;;;5.70;;
24090;SDS011;12272;52.426;17.100;2023-09-18T07:32:02;11.52;;;9.38;;
24090;SDS011;12272;52.426;17.100;2023-09-18T07:37:05;8.75;;;7.25;;
24090;SDS011;12272;52.426;17.100;2023-09-18T07:42:08;14.63;;;8.52;;
24090;SDS011;12272;52.426;17.100;2023-09-18T07:47:10;9.80;;;7.35;;
24090;SDS011;12272;52.426;17.100;2023-09-18T07:52:13;12.02;;;10.63;;
24090;SDS011;12272;52.426;17.100;2023-09-18T07:57:16;10.77;;;9.18;;
24090;SDS011;12272;52.426;17.100;2023-09-18T08:02:19;6.68;;;6.13;;
24090;SDS011;12272;52.426;17.100;2023-09-18T08:07:23;7.95;;;7.15;;
24090;SDS011;12272;52.426;17.100;2023-09-18T08:12:26;6.78;;;6.10;;
24090;SDS011;12272;52.426;17.100;2023-09-18T08:17:28;11.45;;;7.32;;
24090;SDS011;12272;52.426;17.100;2023-09-18T08:22:31;5.20;;;4.70;;
24090;SDS011;12272;52.426;17.100;2023-09-18T08:27:33;8.85;;;6.93;;
24090;SDS011;12272;52.426;17.100;2023-09-18T08:32:37;8.43;;;7.35;;
24090;SDS011;12272;52.426;17.100;2023-09-18T08:37:41;7.43;;;5.57;;
24090;SDS011;12272;52.426;17.100;2023-09-18T08:42:46;5.38;;;4.88;;
24090;SDS011;12272;52.426;17.100;2023-09-18T08:47:49;6.78;;;6.18;;
24090;SDS011;12272;52.426;17.100;2023-09-18T08:53:01;7.45;;;6.75;;
24090;SDS011;12272;52.426;17.100;2023-09-18T08:58:07;8.77;;;6.32;;
24090;SDS011;12272;52.426;17.100;2023-09-18T09:03:10;9.80;;;8.65;;
24090;SDS011;12272;52.426;17.100;2023-09-18T09:08:12;7.78;;;6.97;;
24090;SDS011;12272;52.426;17.100;2023-09-18T09:13:15;6.20;;;5.60;;
24090;SDS011;12272;52.426;17.100;2023-09-18T09:18:36;6.88;;;6.13;;
24090;SDS011;12272;52.426;17.100;2023-09-18T09:23:53;7.32;;;6.63;;
24090;SDS011;12272;52.426;17.100;2023-09-18T09:28:57;12.07;;;7.45;;
24090;SDS011;12272;52.426;17.100;2023-09-18T09:34:24;8.57;;;7.75;;
24090;SDS011;12272;52.426;17.100;2023-09-18T09:39:28;8.35;;;6.03;;
24090;SDS011;12272;52.426;17.100;2023-09-18T09:44:32;10.60;;;8.35;;
24090;SDS011;12272;52.426;17.100;2023-09-18T09:49:47;9.88;;;6.93;;
24090;SDS011;12272;52.426;17.100;2023-09-18T09:54:50;9.90;;;7.13;;
24090;SDS011;12272;52.426;17.100;2023-09-18T09:59:52;8.90;;;7.30;;
24090;SDS011;12272;52.426;17.100;2023-09-18T10:05:29;5.53;;;4.70;;
24090;SDS011;12272;52.426;17.100;2023-09-18T10:10:38;7.47;;;6.22;;
24090;SDS011;12272;52.426;17.100;2023-09-18T10:16:16;5.72;;;5.25;;
24090;SDS011;12272;52.426;17.100;2023-09-18T10:26:51;6.85;;;6.15;;
24090;SDS011;12272;52.426;17.100;2023-09-18T10:31:58;5.35;;;4.93;;
24090;SDS011;12272;52.426;17.100;2023-09-18T10:37:14;6.80;;;6.15;;
24090;SDS011;12272;52.426;17.100;2023-09-18T10:42:17;6.70;;;5.18;;
24090;SDS011;12272;52.426;17.100;2023-09-18T10:47:22;7.65;;;5.72;;
24090;SDS011;12272;52.426;17.100;2023-09-18T10:52:26;7.32;;;5.63;;
24090;SDS011;12272;52.426;17.100;2023-09-18T10:57:32;5.70;;;5.05;;
24090;SDS011;12272;52.426;17.100;2023-09-18T11:02:38;5.80;;;5.20;;
24090;SDS011;12272;52.426;17.100;2023-09-18T11:07:40;4.80;;;4.28;;
24090;SDS011;12272;52.426;17.100;2023-09-18T11:12:47;7.75;;;6.05;;
24090;SDS011;12272;52.426;17.100;2023-09-18T11:17:58;8.52;;;6.22;;
24090;SDS011;12272;52.426;17.100;2023-09-18T11:28:16;7.28;;;6.60;;
24090;SDS011;12272;52.426;17.100;2023-09-18T11:33:43;8.02;;;7.18;;
24090;SDS011;12272;52.426;17.100;2023-09-18T11:38:59;6.10;;;5.50;;
24090;SDS011;12272;52.426;17.100;2023-09-18T11:49:22;8.73;;;6.82;;
24090;SDS011;12272;52.426;17.100;2023-09-18T11:54:28;8.73;;;6.65;;
24090;SDS011;12272;52.426;17.100;2023-09-18T11:59:36;6.35;;;5.75;;
24090;SDS011;12272;52.426;17.100;2023-09-18T12:04:46;13.98;;;6.85;;
24090;SDS011;12272;52.426;17.100;2023-09-18T12:09:50;7.32;;;5.82;;
24090;SDS011;12272;52.426;17.100;2023-09-18T12:14:53;7.32;;;6.63;;
24090;SDS011;12272;52.426;17.100;2023-09-18T12:19:55;8.02;;;5.22;;
24090;SDS011;12272;52.426;17.100;2023-09-18T12:25:08;5.03;;;4.53;;
24090;SDS011;12272;52.426;17.100;2023-09-18T12:30:18;5.20;;;4.75;;
24090;SDS011;12272;52.426;17.100;2023-09-18T12:35:23;6.55;;;5.00;;
24090;SDS011;12272;52.426;17.100;2023-09-18T12:40:31;7.57;;;5.32;;
24090;SDS011;12272;52.426;17.100;2023-09-18T12:45:36;4.75;;;4.35;;
24090;SDS011;12272;52.426;17.100;2023-09-18T12:50:40;8.02;;;5.07;;
24090;SDS011;12272;52.426;17.100;2023-09-18T12:55:43;4.38;;;3.90;;
24090;SDS011;12272;52.426;17.100;2023-09-18T13:00:49;6.85;;;5.60;;
24090;SDS011;12272;52.426;17.100;2023-09-18T13:05:52;9.68;;;7.20;;
24090;SDS011;12272;52.426;17.100;2023-09-18T13:10:56;7.28;;;6.25;;
24090;SDS011;12272;52.426;17.100;2023-09-18T13:16:00;11.75;;;6.40;;
24090;SDS011;12272;52.426;17.100;2023-09-18T13:21:09;8.35;;;5.88;;
24090;SDS011;12272;52.426;17.100;2023-09-18T13:26:13;10.63;;;4.75;;
24090;SDS011;12272;52.426;17.100;2023-09-18T13:31:16;14.13;;;7.65;;
24090;SDS011;12272;52.426;17.100;2023-09-18T13:36:20;14.85;;;8.38;;
24090;SDS011;12272;52.426;17.100;2023-09-18T13:41:22;8.35;;;5.38;;
24090;SDS011;12272;52.426;17.100;2023-09-18T13:46:25;7.53;;;5.68;;
24090;SDS011;12272;52.426;17.100;2023-09-18T13:51:27;6.47;;;5.75;;
24090;SDS011;12272;52.426;17.100;2023-09-18T13:56:30;12.98;;;8.65;;
24090;SDS011;12272;52.426;17.100;2023-09-18T14:01:33;12.85;;;8.52;;
24090;SDS011;12272;52.426;17.100;2023-09-18T14:06:35;13.88;;;7.15;;
24090;SDS011;12272;52.426;17.100;2023-09-18T14:11:38;9.88;;;8.02;;
24090;SDS011;12272;52.426;17.100;2023-09-18T14:16:41;11.13;;;8.35;;
24090;SDS011;12272;52.426;17.100;2023-09-18T14:21:43;9.88;;;8.60;;
24090;SDS011;12272;52.426;17.100;2023-09-18T14:26:46;6.10;;;5.22;;
24090;SDS011;12272;52.426;17.100;2023-09-18T14:31:49;12.68;;;8.80;;
24090;SDS011;12272;52.426;17.100;2023-09-18T14:36:53;5.63;;;5.05;;
24090;SDS011;12272;52.426;17.100;2023-09-18T14:41:56;5.13;;;4.57;;
24090;SDS011;12272;52.426;17.100;2023-09-18T14:46:58;7.55;;;5.15;;
24090;SDS011;12272;52.426;17.100;2023-09-18T14:52:01;11.85;;;8.35;;
24090;SDS011;12272;52.426;17.100;2023-09-18T14:57:05;14.73;;;8.65;;
24090;SDS011;12272;52.426;17.100;2023-09-18T15:02:08;17.17;;;8.35;;
24090;SDS011;12272;52.426;17.100;2023-09-18T15:07:10;7.15;;;4.63;;
24090;SDS011;12272;52.426;17.100;2023-09-18T15:12:13;9.32;;;5.22;;
24090;SDS011;12272;52.426;17.100;2023-09-18T15:17:16;7.28;;;5.88;;
24090;SDS011;12272;52.426;17.100;2023-09-18T15:22:18;12.05;;;9.07;;
24090;SDS011;12272;52.426;17.100;2023-09-18T15:27:22;13.20;;;9.95;;
24090;SDS011;12272;52.426;17.100;2023-09-18T15:32:24;9.43;;;8.45;;
24090;SDS011;12272;52.426;17.100;2023-09-18T15:37:28;11.70;;;9.20;;
24090;SDS011;12272;52.426;17.100;2023-09-18T15:42:33;9.20;;;7.85;;
24090;SDS011;12272;52.426;17.100;2023-09-18T15:47:37;8.13;;;7.32;;
24090;SDS011;12272;52.426;17.100;2023-09-18T15:52:40;7.80;;;6.13;;
24090;SDS011;12272;52.426;17.100;2023-09-18T15:57:42;11.90;;;8.57;;
24090;SDS011;12272;52.426;17.100;2023-09-18T16:02:45;14.70;;;7.53;;
24090;SDS011;12272;52.426;17.100;2023-09-18T16:07:48;9.38;;;8.38;;
24090;SDS011;12272;52.426;17.100;2023-09-18T16:12:51;7.10;;;6.05;;
24090;SDS011;12272;52.426;17.100;2023-09-18T16:17:53;6.95;;;6.40;;
24090;SDS011;12272;52.426;17.100;2023-09-18T16:22:57;11.15;;;7.57;;
24090;SDS011;12272;52.426;17.100;2023-09-18T16:27:59;6.38;;;5.70;;
24090;SDS011;12272;52.426;17.100;2023-09-18T16:33:03;7.47;;;5.95;;
24090;SDS011;12272;52.426;17.100;2023-09-18T16:38:06;10.57;;;7.85;;
24090;SDS011;12272;52.426;17.100;2023-09-18T16:43:09;13.45;;;8.43;;
24090;SDS011;12272;52.426;17.100;2023-09-18T16:48:12;7.78;;;6.97;;
24090;SDS011;12272;52.426;17.100;2023-09-18T16:53:15;10.82;;;8.48;;
24090;SDS011;12272;52.426;17.100;2023-09-18T16:58:18;11.25;;;9.13;;
24090;SDS011;12272;52.426;17.100;2023-09-18T17:03:20;14.18;;;8.18;;
24090;SDS011;12272;52.426;17.100;2023-09-18T17:08:24;11.23;;;10.13;;
24090;SDS011;12272;52.426;17.100;2023-09-18T17:13:27;12.10;;;9.50;;
24090;SDS011;12272;52.426;17.100;2023-09-18T17:18:30;14.73;;;10.60;;
24090;SDS011;12272;52.426;17.100;2023-09-18T17:23:32;12.68;;;11.32;;
24090;SDS011;12272;52.426;17.100;2023-09-18T17:28:35;12.75;;;10.43;;
24090;SDS011;12272;52.426;17.100;2023-09-18T17:33:38;15.95;;;12.07;;
24090;SDS011;12272;52.426;17.100;2023-09-18T17:38:41;17.75;;;11.45;;
24090;SDS011;12272;52.426;17.100;2023-09-18T17:43:44;17.23;;;11.45;;
24090;SDS011;12272;52.426;17.100;2023-09-18T17:48:47;19.77;;;12.93;;
24090;SDS011;12272;52.426;17.100;2023-09-18T17:53:49;27.75;;;14.30;;
24090;SDS011;12272;52.426;17.100;2023-09-18T17:58:52;14.27;;;11.93;;
24090;SDS011;12272;52.426;17.100;2023-09-18T18:03:54;15.88;;;12.20;;
24090;SDS011;12272;52.426;17.100;2023-09-18T18:09:00;20.27;;;12.55;;
24090;SDS011;12272;52.426;17.100;2023-09-18T18:14:03;22.58;;;13.38;;
24090;SDS011;12272;52.426;17.100;2023-09-18T18:19:05;23.88;;;14.45;;
24090;SDS011;12272;52.426;17.100;2023-09-18T18:24:08;16.08;;;11.85;;
24090;SDS011;12272;52.426;17.100;2023-09-18T18:29:11;10.98;;;9.90;;
24090;SDS011;12272;52.426;17.100;2023-09-18T18:34:14;12.68;;;9.25;;
24090;SDS011;12272;52.426;17.100;2023-09-18T18:39:16;12.35;;;11.05;;
24090;SDS011;12272;52.426;17.100;2023-09-18T18:44:20;12.85;;;11.07;;
24090;SDS011;12272;52.426;17.100;2023-09-18T18:49:23;31.10;;;11.55;;
24090;SDS011;12272;52.426;17.100;2023-09-18T18:54:25;10.18;;;8.15;;
24090;SDS011;12272;52.426;17.100;2023-09-18T18:59:28;12.38;;;11.07;;
24090;SDS011;12272;52.426;17.100;2023-09-18T19:04:31;11.02;;;9.82;;
24090;SDS011;12272;52.426;17.100;2023-09-18T19:09:34;16.13;;;13.60;;
24090;SDS011;12272;52.426;17.100;2023-09-18T19:14:36;18.10;;;12.40;;
24090;SDS011;12272;52.426;17.100;2023-09-18T19:19:39;12.95;;;11.70;;
24090;SDS011;12272;52.426;17.100;2023-09-18T19:24:42;13.65;;;12.25;;
24090;SDS011;12272;52.426;17.100;2023-09-18T19:29:44;13.40;;;10.50;;
24090;SDS011;12272;52.426;17.100;2023-09-18T19:34:48;20.00;;;14.10;;
24090;SDS011;12272;52.426;17.100;2023-09-18T19:39:50;16.58;;;12.20;;
24090;SDS011;12272;52.426;17.100;2023-09-18T19:44:54;15.38;;;13.20;;
24090;SDS011;12272;52.426;17.100;2023-09-18T19:49:58;14.25;;;12.20;;
24090;SDS011;12272;52.426;17.100;2023-09-18T19:55:01;15.88;;;13.95;;
24090;SDS011;12272;52.426;17.100;2023-09-18T20:00:03;14.60;;;12.40;;
24090;SDS011;12272;52.426;17.100;2023-09-18T20:05:14;9.65;;;8.65;;
24090;SDS011;12272;52.426;17.100;2023-09-18T20:10:18;14.20;;;11.60;;
24090;SDS011;12272;52.426;17.100;2023-09-18T20:15:20;19.20;;;17.15;;
24090;SDS011;12272;52.426;17.100;2023-09-18T20:20:23;30.17;;;19.55;;
24090;SDS011;12272;52.426;17.100;2023-09-18T20:25:28;20.60;;;16.15;;
24090;SDS011;12272;52.426;17.100;2023-09-18T20:30:30;21.35;;;13.02;;
24090;SDS011;12272;52.426;17.100;2023-09-18T20:35:33;16.95;;;15.15;;
24090;SDS011;12272;52.426;17.100;2023-09-18T20:40:35;21.63;;;16.77;;
24090;SDS011;12272;52.426;17.100;2023-09-18T20:45:40;17.23;;;11.52;;
24090;SDS011;12272;52.426;17.100;2023-09-18T20:50:43;24.42;;;20.52;;
24090;SDS011;12272;52.426;17.100;2023-09-18T20:55:46;20.92;;;16.15;;
24090;SDS011;12272;52.426;17.100;2023-09-18T21:00:49;21.95;;;18.38;;
24090;SDS011;12272;52.426;17.100;2023-09-18T21:05:53;20.15;;;17.55;;
24090;SDS011;12272;52.426;17.100;2023-09-18T21:10:57;19.90;;;17.77;;
24090;SDS011;12272;52.426;17.100;2023-09-18T21:16:01;29.90;;;21.35;;
24090;SDS011;12272;52.426;17.100;2023-09-18T21:21:05;21.10;;;18.90;;
24090;SDS011;12272;52.426;17.100;2023-09-18T21:26:17;26.33;;;20.70;;
24090;SDS011;12272;52.426;17.100;2023-09-18T21:31:20;22.65;;;16.20;;
24090;SDS011;12272;52.426;17.100;2023-09-18T21:36:23;24.75;;;21.05;;
24090;SDS011;12272;52.426;17.100;2023-09-18T21:41:26;25.20;;;21.27;;
24090;SDS011;12272;52.426;17.100;2023-09-18T21:46:29;25.98;;;20.27;;
24090;SDS011;12272;52.426;17.100;2023-09-18T21:51:34;25.70;;;21.05;;
24090;SDS011;12272;52.426;17.100;2023-09-18T22:01:48;21.70;;;17.25;;
24090;SDS011;12272;52.426;17.100;2023-09-18T22:06:54;20.95;;;17.20;;
24090;SDS011;12272;52.426;17.100;2023-09-18T22:11:59;13.93;;;12.32;;
24090;SDS011;12272;52.426;17.100;2023-09-18T22:17:05;10.27;;;9.13;;
24090;SDS011;12272;52.426;17.100;2023-09-18T22:22:07;12.50;;;9.70;;
24090;SDS011;12272;52.426;17.100;2023-09-18T22:27:11;9.70;;;8.68;;
24090;SDS011;12272;52.426;17.100;2023-09-18T23:05:41;8.73;;;5.90;;
24090;SDS011;12272;52.426;17.100;2023-09-18T23:10:44;7.15;;;6.45;;
24090;SDS011;12272;52.426;17.100;2023-09-18T23:15:46;8.60;;;7.13;;
24090;SDS011;12272;52.426;17.100;2023-09-18T23:20:49;5.45;;;4.70;;
24090;SDS011;12272;52.426;17.100;2023-09-18T23:25:55;6.32;;;5.00;;
24090;SDS011;12272;52.426;17.100;2023-09-18T23:30:58;6.75;;;6.05;;
24090;SDS011;12272;52.426;17.100;2023-09-18T23:36:01;5.60;;;5.03;;
24090;SDS011;12272;52.426;17.100;2023-09-18T23:41:05;9.82;;;6.95;;
24090;SDS011;12272;52.426;17.100;2023-09-18T23:46:07;4.95;;;3.47;;
24090;SDS011;12272;52.426;17.100;2023-09-18T23:51:12;5.88;;;4.85;;
24090;SDS011;12272;52.426;17.100;2023-09-18T23:56:15;7.18;;;6.20;;
